Time;durP1;ratioP1;P1;durP2;ratioP2;P2;SDS_P1;SDS_P2;PMS_P1;PMS_P2;Temp;Humidity;BMP_temperature;BMP_pressure;BME280_temperature;BME280_humidity;BME280_pressure;Samples;Min_cycle;Max_cycle;Signal;HPM_P1;HPM_P2
2024/01/06 00:00:35;;;;;;;27.33;11.50;;;8.10;99.90;;;;;;5095273;28;20025;-63
2024/01/06 00:03:00;;;;;;;22.95;11.23;;;8.10;99.90;;;;;;5094984;28;20044;-64
2024/01/06 00:05:26;;;;;;;23.13;10.73;;;8.10;99.90;;;;;;5095068;28;20086;-64
2024/01/06 00:07:51;;;;;;;24.27;10.70;;;8.10;99.90;;;;;;5095025;28;20037;-63
2024/01/06 00:10:17;;;;;;;28.55;12.13;;;8.10;99.90;;;;;;5095076;28;20495;-65
2024/01/06 00:12:43;;;;;;;26.50;11.85;;;8.10;99.90;;;;;;5093895;28;20025;-64
2024/01/06 00:15:10;;;;;;;27.85;11.45;;;8.10;99.90;;;;;;5095023;28;20027;-64
2024/01/06 00:17:36;;;;;;;28.40;9.95;;;8.10;99.90;;;;;;5094897;28;20025;-64
2024/01/06 00:20:02;;;;;;;23.67;9.40;;;8.10;99.90;;;;;;5094774;28;20032;-64
2024/01/06 00:22:28;;;;;;;26.67;10.13;;;8.20;99.90;;;;;;5094744;28;20031;-64
2024/01/06 00:24:53;;;;;;;21.80;10.00;;;8.10;99.90;;;;;;5092923;28;20081;-63
2024/01/06 00:27:19;;;;;;;24.92;10.48;;;8.10;99.90;;;;;;5093738;28;20024;-63
2024/01/06 00:29:44;;;;;;;19.70;9.32;;;8.10;99.90;;;;;;5094668;28;20187;-64
2024/01/06 00:32:10;;;;;;;28.10;9.85;;;8.10;99.90;;;;;;5094362;28;20089;-63
2024/01/06 00:34:36;;;;;;;22.88;9.18;;;8.10;99.90;;;;;;5094506;28;20028;-63
2024/01/06 00:37:01;;;;;;;23.15;8.18;;;8.00;99.90;;;;;;5094325;28;20093;-64
2024/01/06 00:39:27;;;;;;;22.38;8.73;;;8.00;99.90;;;;;;5094403;28;20127;-63
2024/01/06 00:41:53;;;;;;;21.33;8.07;;;8.00;99.90;;;;;;5093431;28;20032;-63
2024/01/06 00:44:18;;;;;;;19.67;8.15;;;8.00;99.90;;;;;;5094353;28;20052;-63
2024/01/06 00:46:45;;;;;;;22.52;10.23;;;8.00;99.90;;;;;;5094227;28;20028;-62
2024/01/06 00:49:10;;;;;;;21.98;7.78;;;7.90;99.90;;;;;;5094331;28;20042;-63
2024/01/06 00:51:36;;;;;;;20.48;7.80;;;7.90;99.90;;;;;;5094044;28;20084;-64
2024/01/06 00:54:02;;;;;;;20.25;8.23;;;7.90;99.90;;;;;;5094206;28;20076;-63
2024/01/06 00:56:28;;;;;;;20.83;8.48;;;7.90;99.90;;;;;;5094217;28;20116;-63
2024/01/06 00:58:54;;;;;;;17.40;7.28;;;7.80;99.90;;;;;;5094077;28;20027;-63
2024/01/06 01:01:20;;;;;;;20.65;8.57;;;7.80;99.90;;;;;;5093872;28;20029;-63
2024/01/06 01:03:45;;;;;;;21.63;7.70;;;7.80;99.90;;;;;;5094134;28;20036;-63
2024/01/06 01:06:11;;;;;;;18.33;7.85;;;7.80;99.90;;;;;;5093898;28;20028;-64
2024/01/06 01:08:36;;;;;;;17.40;7.18;;;7.80;99.90;;;;;;5093804;28;20055;-65
2024/01/06 01:11:02;;;;;;;17.17;7.07;;;7.80;99.90;;;;;;5093664;28;20032;-65
2024/01/06 01:13:28;;;;;;;19.27;7.40;;;7.80;99.90;;;;;;5093739;28;20029;-63
2024/01/06 01:15:53;;;;;;;22.65;8.38;;;7.80;99.90;;;;;;5093701;28;20036;-63
2024/01/06 01:18:19;;;;;;;18.60;7.68;;;7.70;99.90;;;;;;5093654;28;20024;-64
2024/01/06 01:20:45;;;;;;;16.25;7.07;;;7.70;99.90;;;;;;5093447;28;20036;-64
2024/01/06 01:23:10;;;;;;;16.00;6.18;;;7.70;99.90;;;;;;5093532;28;20025;-64
2024/01/06 01:25:36;;;;;;;13.68;6.10;;;7.70;99.90;;;;;;5093423;28;20037;-63
2024/01/06 01:28:01;;;;;;;16.42;6.95;;;7.70;99.90;;;;;;5093456;28;20025;-63
2024/01/06 01:30:27;;;;;;;16.50;6.30;;;7.60;99.90;;;;;;5093430;28;20036;-64
2024/01/06 01:32:53;;;;;;;15.85;7.15;;;7.60;99.90;;;;;;5093105;28;20034;-62
2024/01/06 01:35:19;;;;;;;18.45;7.18;;;7.60;99.90;;;;;;5091439;28;20101;-63
2024/01/06 01:37:44;;;;;;;16.15;6.55;;;7.60;99.90;;;;;;5092964;28;20095;-64
2024/01/06 01:40:10;;;;;;;15.32;6.13;;;7.70;99.90;;;;;;5093253;28;20029;-62
2024/01/06 01:42:37;;;;;;;15.23;6.85;;;7.60;99.90;;;;;;5093191;28;20154;-64
2024/01/06 01:45:03;;;;;;;12.95;5.30;;;7.70;99.90;;;;;;5093089;28;20024;-64
2024/01/06 01:47:29;;;;;;;14.15;6.38;;;7.60;99.90;;;;;;5093067;28;20024;-64
2024/01/06 01:49:56;;;;;;;16.63;6.13;;;7.60;99.90;;;;;;5092980;28;20066;-63
2024/01/06 01:52:22;;;;;;;15.93;6.75;;;7.60;99.90;;;;;;5093022;28;20040;-63
2024/01/06 01:54:48;;;;;;;15.93;6.57;;;7.60;99.90;;;;;;5092914;28;20031;-63
2024/01/06 01:57:15;;;;;;;15.15;6.40;;;7.50;99.90;;;;;;5093070;28;20036;-63
2024/01/06 01:59:42;;;;;;;15.38;6.38;;;7.50;99.90;;;;;;5092882;28;20025;-63
2024/01/06 02:02:08;;;;;;;14.10;5.53;;;7.50;99.90;;;;;;5092512;28;20024;-64
2024/01/06 02:04:34;;;;;;;13.90;5.57;;;7.40;99.90;;;;;;5092660;28;20087;-64
2024/01/06 02:07:00;;;;;;;13.38;6.07;;;7.40;99.90;;;;;;5092609;28;20119;-64
2024/01/06 02:09:29;;;;;;;11.93;6.00;;;7.40;99.90;;;;;;5092763;28;20051;-63
2024/01/06 02:11:56;;;;;;;16.17;6.22;;;7.40;99.90;;;;;;5092612;28;20025;-63
2024/01/06 02:14:22;;;;;;;13.05;5.68;;;7.30;99.90;;;;;;5092684;28;20042;-64
2024/01/06 02:16:47;;;;;;;13.80;5.57;;;7.30;99.90;;;;;;5092572;28;20080;-64
2024/01/06 02:19:15;;;;;;;13.85;4.88;;;7.30;99.90;;;;;;5092579;28;20036;-65
2024/01/06 02:21:43;;;;;;;15.82;5.55;;;7.20;99.90;;;;;;5092546;28;20032;-64
2024/01/06 02:24:09;;;;;;;14.07;5.20;;;7.20;99.90;;;;;;5092621;28;20025;-62
2024/01/06 02:26:35;;;;;;;10.88;4.80;;;7.20;99.90;;;;;;5092501;28;20035;-64
2024/01/06 02:29:01;;;;;;;12.23;5.15;;;7.20;99.90;;;;;;5092498;28;20052;-63
2024/01/06 02:31:27;;;;;;;11.27;4.97;;;7.20;99.90;;;;;;5092209;28;20056;-62
2024/01/06 02:33:53;;;;;;;11.05;4.30;;;7.10;99.90;;;;;;5092520;28;20028;-63
2024/01/06 02:36:19;;;;;;;11.82;4.97;;;7.10;99.90;;;;;;5092456;28;20021;-63
2024/01/06 02:38:44;;;;;;;13.88;5.03;;;7.10;99.90;;;;;;5092221;28;20071;-65
2024/01/06 02:41:10;;;;;;;11.60;4.43;;;7.10;99.90;;;;;;5092414;28;20028;-62
2024/01/06 02:43:35;;;;;;;10.45;4.60;;;7.00;99.90;;;;;;5092305;28;20028;-63
2024/01/06 02:46:01;;;;;;;9.65;4.40;;;7.00;99.90;;;;;;5092160;28;20040;-63
2024/01/06 02:48:27;;;;;;;11.65;5.05;;;7.00;99.90;;;;;;5091882;28;20025;-63
2024/01/06 02:50:52;;;;;;;10.50;4.97;;;6.90;99.90;;;;;;5092340;28;20047;-64
2024/01/06 02:53:18;;;;;;;8.55;4.32;;;7.00;99.90;;;;;;5092144;28;20036;-64
2024/01/06 02:55:43;;;;;;;8.93;3.97;;;6.90;99.90;;;;;;5092119;28;20029;-64
2024/01/06 02:58:09;;;;;;;12.13;4.50;;;6.90;99.90;;;;;;5092148;28;20017;-63
2024/01/06 03:00:35;;;;;;;8.40;3.92;;;6.90;99.90;;;;;;5092281;28;20464;-65
2024/01/06 03:03:00;;;;;;;11.00;4.57;;;6.90;99.90;;;;;;5091976;28;20050;-64
2024/01/06 03:05:26;;;;;;;12.18;4.68;;;6.90;99.90;;;;;;5092032;28;20029;-64
2024/01/06 03:07:51;;;;;;;11.15;4.35;;;6.90;99.90;;;;;;5091950;28;20036;-62
2024/01/06 03:10:17;;;;;;;10.55;4.63;;;6.90;99.90;;;;;;5092061;28;20044;-63
2024/01/06 03:12:43;;;;;;;10.30;4.28;;;6.90;99.90;;;;;;5092005;28;20029;-64
2024/01/06 03:15:08;;;;;;;12.48;5.05;;;6.90;99.90;;;;;;5091981;28;20035;-64
2024/01/06 03:17:34;;;;;;;8.90;4.22;;;6.90;99.90;;;;;;5091833;28;20115;-63
2024/01/06 03:20:00;;;;;;;11.98;4.18;;;6.80;99.90;;;;;;5091933;28;20009;-63
2024/01/06 03:22:25;;;;;;;11.35;4.22;;;6.80;99.90;;;;;;5091978;28;20620;-63
2024/01/06 03:24:51;;;;;;;11.55;5.00;;;6.80;99.90;;;;;;5091994;28;20029;-63
2024/01/06 03:27:16;;;;;;;11.18;4.35;;;6.80;99.90;;;;;;5092047;28;20092;-63
2024/01/06 03:29:42;;;;;;;10.00;4.15;;;6.80;99.90;;;;;;5090837;28;20032;-63
2024/01/06 03:32:07;;;;;;;10.57;4.68;;;6.80;99.90;;;;;;5091353;28;20024;-63
2024/01/06 03:34:33;;;;;;;9.82;4.38;;;6.80;99.90;;;;;;5091884;28;20063;-63
2024/01/06 03:36:59;;;;;;;13.68;5.43;;;6.70;99.90;;;;;;5091693;28;20037;-64
2024/01/06 03:39:24;;;;;;;10.02;4.70;;;6.70;99.90;;;;;;5090693;28;20045;-64
2024/01/06 03:41:50;;;;;;;12.10;5.15;;;6.70;99.90;;;;;;5091637;28;20033;-64
2024/01/06 03:44:15;;;;;;;12.60;5.22;;;6.70;99.90;;;;;;5091704;28;20084;-63
2024/01/06 03:46:41;;;;;;;13.90;5.60;;;6.70;99.90;;;;;;5091738;28;20122;-64
2024/01/06 03:49:07;;;;;;;13.95;5.70;;;6.60;99.90;;;;;;5091652;28;20024;-63
2024/01/06 03:51:32;;;;;;;14.73;5.43;;;6.60;99.90;;;;;;5091528;28;20055;-64
2024/01/06 03:53:58;;;;;;;11.80;5.15;;;6.60;99.90;;;;;;5091584;28;20033;-65
2024/01/06 03:56:23;;;;;;;13.02;5.72;;;6.70;99.90;;;;;;5091515;28;20265;-63
2024/01/06 03:58:49;;;;;;;12.85;5.53;;;6.70;99.90;;;;;;5092134;28;20028;-64
2024/01/06 04:01:14;;;;;;;14.57;5.88;;;6.70;99.90;;;;;;5094869;28;20024;-63
2024/01/06 04:03:40;;;;;;;11.15;4.80;;;6.60;99.90;;;;;;5095103;28;20048;-64
2024/01/06 04:06:06;;;;;;;15.00;6.30;;;6.60;99.90;;;;;;5095079;28;20029;-64
2024/01/06 04:08:32;;;;;;;10.88;5.32;;;6.60;99.90;;;;;;5093973;28;20048;-62
2024/01/06 04:10:57;;;;;;;14.32;5.35;;;6.60;99.90;;;;;;5095043;28;20028;-62
2024/01/06 04:13:24;;;;;;;14.45;6.00;;;6.50;99.90;;;;;;5094827;28;20033;-63
2024/01/06 04:15:50;;;;;;;12.00;5.68;;;6.60;99.90;;;;;;5094751;28;20042;-62
2024/01/06 04:18:16;;;;;;;13.30;5.13;;;6.60;99.90;;;;;;5094764;28;20028;-63
2024/01/06 04:20:42;;;;;;;12.45;5.13;;;6.50;99.90;;;;;;5094786;28;20032;-63
2024/01/06 04:23:07;;;;;;;13.00;5.70;;;6.50;99.90;;;;;;5094753;28;20435;-62
2024/01/06 04:25:33;;;;;;;15.70;6.07;;;6.50;99.90;;;;;;5094615;28;20116;-62
2024/01/06 04:27:59;;;;;;;11.60;5.15;;;6.50;99.90;;;;;;5094618;28;20032;-64
2024/01/06 04:30:25;;;;;;;16.92;5.97;;;6.60;99.90;;;;;;5094530;28;20084;-63
2024/01/06 04:32:51;;;;;;;14.00;5.88;;;6.60;99.90;;;;;;5094248;28;20016;-64
2024/01/06 04:35:17;;;;;;;13.57;5.15;;;6.50;99.90;;;;;;5094487;28;20457;-64
2024/01/06 04:37:43;;;;;;;14.98;6.50;;;6.60;99.90;;;;;;5094204;28;20025;-64
2024/01/06 04:40:10;;;;;;;12.02;5.38;;;6.50;99.90;;;;;;5094437;28;20024;-63
2024/01/06 04:42:35;;;;;;;12.15;5.85;;;6.50;99.90;;;;;;5094298;28;20025;-62
2024/01/06 04:45:01;;;;;;;13.75;5.53;;;6.50;99.90;;;;;;5094214;28;20035;-64
2024/01/06 04:47:27;;;;;;;13.18;5.85;;;6.50;99.90;;;;;;5094262;28;20390;-64
2024/01/06 04:49:53;;;;;;;15.55;6.63;;;6.50;99.90;;;;;;5094248;28;20084;-63
2024/01/06 04:52:19;;;;;;;15.93;5.97;;;6.50;99.90;;;;;;5094016;28;20466;-63
2024/01/06 04:54:44;;;;;;;14.80;5.45;;;6.40;99.90;;;;;;5094272;28;20021;-63
2024/01/06 04:57:10;;;;;;;14.27;5.82;;;6.40;99.90;;;;;;5094098;28;20029;-63
2024/01/06 04:59:35;;;;;;;14.32;5.88;;;6.40;99.90;;;;;;5094145;28;20051;-63
2024/01/06 05:02:01;;;;;;;17.20;5.88;;;6.40;99.90;;;;;;5093835;28;20382;-63
2024/01/06 05:04:27;;;;;;;13.02;5.47;;;6.40;99.90;;;;;;5093998;28;20029;-64
2024/01/06 05:06:52;;;;;;;13.40;5.47;;;6.40;99.90;;;;;;5093839;28;20041;-63
2024/01/06 05:09:18;;;;;;;13.10;5.13;;;6.40;99.90;;;;;;5093716;28;20033;-64
2024/01/06 05:11:44;;;;;;;15.90;5.90;;;6.40;99.90;;;;;;5092548;28;20056;-63
2024/01/06 05:14:10;;;;;;;14.07;5.57;;;6.40;99.90;;;;;;5093697;28;20058;-63
2024/01/06 05:16:36;;;;;;;12.25;5.50;;;6.50;99.90;;;;;;5093694;28;20047;-63
2024/01/06 05:19:02;;;;;;;13.15;5.50;;;6.50;99.90;;;;;;5093658;28;20060;-63
2024/01/06 05:21:28;;;;;;;14.57;6.25;;;6.50;99.90;;;;;;5093464;28;20028;-63
2024/01/06 05:23:53;;;;;;;12.90;5.60;;;6.50;99.90;;;;;;5093648;28;20359;-63
2024/01/06 05:26:19;;;;;;;14.63;6.47;;;6.50;99.90;;;;;;5093576;28;20029;-63
2024/01/06 05:28:44;;;;;;;13.35;5.53;;;6.50;99.90;;;;;;5092386;28;20025;-64
2024/01/06 05:31:10;;;;;;;13.77;5.85;;;6.50;99.90;;;;;;5093160;28;20028;-63
2024/01/06 05:33:36;;;;;;;12.63;5.57;;;6.50;99.90;;;;;;5093362;28;20024;-63
2024/01/06 05:36:02;;;;;;;14.80;5.75;;;6.50;99.90;;;;;;5093330;28;20047;-63
2024/01/06 05:38:27;;;;;;;15.30;6.40;;;6.50;99.90;;;;;;5093072;28;20104;-62
2024/01/06 05:40:53;;;;;;;15.07;5.55;;;6.40;99.90;;;;;;5093216;28;20028;-63
2024/01/06 05:43:18;;;;;;;12.57;5.60;;;6.40;99.90;;;;;;5093084;28;20035;-63
2024/01/06 05:45:44;;;;;;;14.30;6.03;;;6.30;99.90;;;;;;5093079;28;20392;-63
2024/01/06 05:48:11;;;;;;;14.32;5.90;;;6.30;99.90;;;;;;5093092;28;20021;-63
2024/01/06 05:50:39;;;;;;;14.20;6.13;;;6.30;99.90;;;;;;5091950;28;20044;-64
2024/01/06 05:53:05;;;;;;;12.65;4.90;;;6.30;99.90;;;;;;5092958;28;20107;-63
2024/01/06 05:55:31;;;;;;;15.18;6.28;;;6.30;99.90;;;;;;5091836;28;20039;-63
2024/01/06 05:57:56;;;;;;;18.50;7.47;;;6.30;99.90;;;;;;5092889;28;20058;-63
2024/01/06 06:00:22;;;;;;;16.45;6.45;;;6.30;99.90;;;;;;5092911;28;20029;-63
2024/01/06 06:02:48;;;;;;;15.60;6.60;;;6.30;99.90;;;;;;5092524;28;20029;-64
2024/01/06 06:05:14;;;;;;;15.82;5.90;;;6.30;99.90;;;;;;5092799;28;20055;-63
2024/01/06 06:07:40;;;;;;;15.30;5.97;;;6.30;99.90;;;;;;5092735;28;20103;-64
2024/01/06 06:10:10;;;;;;;17.65;6.32;;;6.30;99.90;;;;;;5092722;28;20574;-64
2024/01/06 06:12:36;;;;;;;13.40;5.95;;;6.30;99.90;;;;;;5092592;28;20541;-62
2024/01/06 06:15:03;;;;;;;16.05;6.43;;;6.40;99.90;;;;;;5091628;28;20021;-63
2024/01/06 06:17:30;;;;;;;15.88;6.20;;;6.30;99.90;;;;;;5092456;28;20021;-65
2024/01/06 06:19:59;;;;;;;19.95;6.60;;;6.40;99.90;;;;;;5092522;28;20016;-63
2024/01/06 06:22:31;;;;;;;15.50;5.88;;;6.30;99.90;;;;;;5091852;28;20052;-62
2024/01/06 06:24:58;;;;;;;13.27;5.80;;;6.20;99.90;;;;;;5092363;28;20035;-64
2024/01/06 06:27:24;;;;;;;14.52;6.28;;;6.20;99.90;;;;;;5092355;28;20036;-64
2024/01/06 06:29:50;;;;;;;16.52;6.82;;;6.20;99.90;;;;;;5092540;28;20044;-62
2024/01/06 06:32:16;;;;;;;12.77;5.20;;;6.20;99.90;;;;;;5092207;28;20078;-62
2024/01/06 06:34:42;;;;;;;12.70;5.22;;;6.20;99.90;;;;;;5092384;28;20021;-64
2024/01/06 06:37:08;;;;;;;11.63;4.60;;;6.20;99.90;;;;;;5092343;28;20029;-64
2024/01/06 06:39:35;;;;;;;9.23;4.22;;;6.20;99.90;;;;;;5092091;28;20071;-63
2024/01/06 06:42:01;;;;;;;10.77;4.22;;;6.10;99.90;;;;;;5092317;28;20021;-63
2024/01/06 06:44:27;;;;;;;11.82;4.38;;;6.00;99.90;;;;;;5092348;28;20025;-64
2024/01/06 06:46:52;;;;;;;9.52;4.25;;;6.00;99.90;;;;;;5092345;28;20043;-64
2024/01/06 06:49:18;;;;;;;9.70;4.32;;;5.90;99.90;;;;;;5091124;28;20146;-64
2024/01/06 06:51:47;;;;;;;10.45;4.70;;;5.90;99.90;;;;;;5092110;28;20032;-63
2024/01/06 06:54:14;;;;;;;12.38;4.28;;;5.90;99.90;;;;;;5092186;28;20017;-63
2024/01/06 06:56:40;;;;;;;13.27;4.72;;;5.90;99.90;;;;;;5092171;28;20024;-64
2024/01/06 06:59:05;;;;;;;12.30;4.30;;;5.90;99.90;;;;;;5091225;28;20029;-65
2024/01/06 07:01:31;;;;;;;11.18;4.68;;;5.80;99.90;;;;;;5091964;28;20050;-63
2024/01/06 07:03:57;;;;;;;10.80;4.35;;;5.90;99.90;;;;;;5092068;28;20037;-64
2024/01/06 07:06:24;;;;;;;11.63;4.40;;;5.90;99.90;;;;;;5092013;28;20024;-64
2024/01/06 07:08:50;;;;;;;11.82;4.47;;;5.90;99.90;;;;;;5091894;28;20024;-65
2024/01/06 07:11:18;;;;;;;10.55;4.38;;;5.80;99.90;;;;;;5092008;28;20060;-65
2024/01/06 07:13:44;;;;;;;13.02;4.82;;;5.80;99.90;;;;;;5091130;28;20095;-63
2024/01/06 07:16:09;;;;;;;14.60;5.18;;;5.80;99.90;;;;;;5092014;28;20025;-63
2024/01/06 07:18:35;;;;;;;12.02;5.10;;;5.80;99.90;;;;;;5091955;28;20025;-64
2024/01/06 07:21:00;;;;;;;13.95;5.25;;;5.70;99.90;;;;;;5091835;28;20031;-64
2024/01/06 07:23:26;;;;;;;12.82;5.60;;;5.70;99.90;;;;;;5091897;28;20071;-63
2024/01/06 07:25:52;;;;;;;15.18;5.75;;;5.70;99.90;;;;;;5091942;28;20025;-64
2024/01/06 07:28:17;;;;;;;16.20;5.95;;;5.70;99.90;;;;;;5091920;28;20036;-65
2024/01/06 07:30:43;;;;;;;12.18;5.75;;;5.70;99.90;;;;;;5091828;28;20017;-63
2024/01/06 07:33:11;;;;;;;13.18;5.28;;;5.60;99.90;;;;;;5092793;28;20088;-62
2024/01/06 07:35:37;;;;;;;13.90;5.50;;;5.60;99.90;;;;;;5095566;28;20017;-65
2024/01/06 07:38:02;;;;;;;14.23;6.00;;;5.60;99.90;;;;;;5095361;28;20090;-63
2024/01/06 07:40:28;;;;;;;13.50;5.65;;;5.60;99.90;;;;;;5095430;28;20125;-63
2024/01/06 07:42:54;;;;;;;11.38;5.43;;;5.70;99.90;;;;;;5095344;28;20032;-63
2024/01/06 07:45:19;;;;;;;11.27;4.85;;;5.60;99.90;;;;;;5095305;28;20032;-64
2024/01/06 07:47:45;;;;;;;12.18;5.60;;;5.60;99.90;;;;;;5094335;28;20039;-64
2024/01/06 07:50:10;;;;;;;12.23;4.68;;;5.60;99.90;;;;;;5095192;28;20029;-63
2024/01/06 07:52:36;;;;;;;11.40;5.20;;;5.60;99.90;;;;;;5094107;28;20101;-63
2024/01/06 07:55:01;;;;;;;12.95;5.32;;;5.60;99.90;;;;;;5095260;28;20059;-63
2024/01/06 07:57:27;;;;;;;14.13;5.53;;;5.60;99.90;;;;;;5095167;28;20074;-62
2024/01/06 07:59:53;;;;;;;13.23;5.75;;;5.60;99.90;;;;;;5095199;28;20077;-63
2024/01/06 08:02:18;;;;;;;15.18;5.70;;;5.50;99.90;;;;;;5094922;28;20048;-63
2024/01/06 08:04:44;;;;;;;12.35;5.80;;;5.50;99.90;;;;;;5093943;28;20115;-65
2024/01/06 08:07:10;;;;;;;13.38;5.43;;;5.50;99.90;;;;;;5074194;28;20041;-63
2024/01/06 08:09:35;;;;;;;12.55;5.18;;;5.50;99.90;;;;;;5054913;28;20106;-64
2024/01/06 08:12:03;;;;;;;12.95;5.38;;;5.50;99.90;;;;;;5054785;28;20088;-63
2024/01/06 08:14:28;;;;;;;13.70;6.25;;;5.50;99.90;;;;;;5054798;28;20014;-62
2024/01/06 08:16:54;;;;;;;12.57;5.68;;;5.50;99.90;;;;;;5054679;28;20060;-64
2024/01/06 08:19:20;;;;;;;14.80;5.47;;;5.50;99.90;;;;;;5054684;28;20045;-62
2024/01/06 08:21:47;;;;;;;13.32;6.25;;;5.50;99.90;;;;;;5054502;28;20030;-63
2024/01/06 08:24:12;;;;;;;15.38;5.95;;;5.50;99.90;;;;;;5054649;28;20037;-64
2024/01/06 08:26:38;;;;;;;12.50;6.47;;;5.40;99.90;;;;;;5054571;28;20029;-62
2024/01/06 08:29:03;;;;;;;14.50;6.47;;;5.40;99.90;;;;;;5054615;28;20064;-63
2024/01/06 08:31:29;;;;;;;17.95;6.20;;;5.50;99.90;;;;;;5054275;28;20026;-62
2024/01/06 08:33:55;;;;;;;13.63;5.82;;;5.50;99.90;;;;;;5054520;28;20388;-62
2024/01/06 08:36:21;;;;;;;13.55;6.20;;;5.40;99.90;;;;;;5054381;28;20010;-63
2024/01/06 08:38:47;;;;;;;13.63;6.35;;;5.50;99.90;;;;;;5054261;28;20046;-64
2024/01/06 08:41:13;;;;;;;14.02;5.90;;;5.50;99.90;;;;;;5054272;28;20070;-64
2024/01/06 08:43:38;;;;;;;12.65;5.78;;;5.50;99.90;;;;;;5053285;28;20025;-64
2024/01/06 08:46:05;;;;;;;15.23;6.82;;;5.50;99.90;;;;;;5053533;28;20372;-63
2024/01/06 08:48:31;;;;;;;13.75;5.50;;;5.50;99.90;;;;;;5054176;28;20443;-63
2024/01/06 08:50:57;;;;;;;17.20;6.75;;;5.50;99.90;;;;;;5054141;28;20034;-62
2024/01/06 08:53:22;;;;;;;13.43;6.35;;;5.50;99.90;;;;;;5054137;28;20087;-62
2024/01/06 08:55:48;;;;;;;14.30;6.50;;;5.50;99.90;;;;;;5053982;28;20026;-62
2024/01/06 08:58:13;;;;;;;13.63;5.97;;;5.40;99.90;;;;;;5053931;28;20056;-63
2024/01/06 09:00:39;;;;;;;17.15;7.28;;;5.40;99.90;;;;;;5052968;28;20064;-64
2024/01/06 09:03:05;;;;;;;13.60;6.38;;;5.50;99.90;;;;;;5053830;28;20041;-65
2024/01/06 09:05:30;;;;;;;12.73;6.55;;;5.50;99.90;;;;;;5053771;28;20040;-63
2024/01/06 09:07:56;;;;;;;16.27;6.88;;;5.50;99.90;;;;;;5053757;28;20056;-65
2024/01/06 09:10:21;;;;;;;14.35;6.15;;;5.50;99.90;;;;;;5053835;28;20060;-64
2024/01/06 09:12:47;;;;;;;13.57;6.05;;;5.50;99.90;;;;;;5053651;28;20037;-63
2024/01/06 09:15:13;;;;;;;13.02;6.40;;;5.50;99.90;;;;;;5053587;28;20029;-63
2024/01/06 09:17:38;;;;;;;14.82;5.75;;;5.50;99.90;;;;;;5053507;28;20026;-63
2024/01/06 09:20:05;;;;;;;14.35;5.85;;;5.50;99.90;;;;;;5053354;28;20029;-64
2024/01/06 09:22:32;;;;;;;13.25;5.93;;;5.60;99.90;;;;;;5053445;28;20030;-62
2024/01/06 09:24:57;;;;;;;10.65;5.03;;;5.60;99.90;;;;;;5052363;28;20048;-63
2024/01/06 09:27:23;;;;;;;12.75;5.28;;;5.60;99.90;;;;;;5053318;28;20033;-63
2024/01/06 09:29:50;;;;;;;13.52;5.28;;;5.70;99.90;;;;;;5053343;28;20084;-64
2024/01/06 09:32:16;;;;;;;12.27;5.25;;;5.70;99.90;;;;;;5052915;28;20040;-64
2024/01/06 09:34:42;;;;;;;13.48;5.55;;;5.70;99.90;;;;;;5053180;28;20041;-63
2024/01/06 09:37:07;;;;;;;12.15;5.50;;;5.70;99.90;;;;;;5053136;28;20366;-63
2024/01/06 09:39:33;;;;;;;14.70;5.55;;;5.60;99.90;;;;;;5053056;28;20063;-64
2024/01/06 09:41:58;;;;;;;13.77;5.85;;;5.70;99.90;;;;;;5053183;28;20419;-63
2024/01/06 09:44:24;;;;;;;13.23;5.25;;;5.70;99.90;;;;;;5053125;28;20070;-65
2024/01/06 09:46:50;;;;;;;13.50;6.15;;;5.70;99.90;;;;;;5051973;28;20112;-62
2024/01/06 09:49:23;;;;;;;13.45;5.65;;;5.70;99.90;;;;;;5052935;28;20807;-62
2024/01/06 09:51:51;;;;;;;12.40;5.70;;;5.70;99.90;;;;;;5052820;28;20022;-64
2024/01/06 09:54:24;;;;;;;11.77;5.53;;;5.60;99.90;;;;;;5052867;28;20017;-63
2024/01/06 09:56:49;;;;;;;14.55;6.43;;;5.60;99.90;;;;;;5051954;28;20026;-64
2024/01/06 09:59:15;;;;;;;12.23;5.28;;;5.60;99.90;;;;;;5052806;28;20025;-65
2024/01/06 10:01:41;;;;;;;14.55;5.90;;;5.60;99.90;;;;;;5052500;28;20037;-65
2024/01/06 10:04:07;;;;;;;13.75;6.70;;;5.70;99.90;;;;;;5052741;28;20044;-64
2024/01/06 10:06:33;;;;;;;15.43;6.55;;;5.70;99.90;;;;;;5052585;28;20057;-63
2024/01/06 10:08:59;;;;;;;18.95;6.57;;;5.70;99.90;;;;;;5052545;28;20032;-63
2024/01/06 10:11:26;;;;;;;14.68;6.53;;;5.60;99.90;;;;;;5052561;28;20060;-63
2024/01/06 10:13:52;;;;;;;16.02;6.65;;;5.60;99.90;;;;;;5052573;28;20028;-62
2024/01/06 10:16:18;;;;;;;16.27;6.40;;;5.60;99.90;;;;;;5052469;28;20033;-63
2024/01/06 10:18:44;;;;;;;15.48;6.88;;;5.60;99.90;;;;;;5052490;28;20013;-62
2024/01/06 10:21:10;;;;;;;18.42;7.40;;;5.70;99.90;;;;;;5052408;28;20032;-64
2024/01/06 10:23:36;;;;;;;16.17;6.32;;;5.70;99.90;;;;;;5052420;28;20030;-64
2024/01/06 10:26:02;;;;;;;16.77;6.60;;;5.60;99.90;;;;;;5052341;28;20025;-63
2024/01/06 10:28:29;;;;;;;20.90;7.82;;;5.70;99.90;;;;;;5052385;28;20056;-64
2024/01/06 10:30:58;;;;;;;17.58;6.88;;;5.70;99.90;;;;;;5052273;28;20026;-63
2024/01/06 10:33:25;;;;;;;15.50;6.60;;;5.60;99.90;;;;;;5052092;28;20333;-64
2024/01/06 10:35:52;;;;;;;17.20;6.85;;;5.60;99.90;;;;;;5052296;28;20026;-63
2024/01/06 10:38:19;;;;;;;13.90;6.35;;;5.60;99.90;;;;;;5052082;28;20458;-62
2024/01/06 10:41:06;;;;;;;13.88;6.60;;;5.60;99.90;;;;;;5052162;28;20017;-63
2024/01/06 10:43:36;;;;;;;15.02;6.20;;;5.60;99.90;;;;;;5052243;28;20112;-63
2024/01/06 10:46:04;;;;;;;12.32;5.80;;;5.60;99.90;;;;;;5052195;28;20047;-63
2024/01/06 10:48:34;;;;;;;15.38;6.93;;;5.70;99.90;;;;;;5052106;28;20413;-63
2024/01/06 10:51:02;;;;;;;15.30;5.47;;;5.70;99.90;;;;;;5052101;28;20077;-63
2024/01/06 10:53:27;;;;;;;14.60;6.57;;;5.70;99.90;;;;;;5052037;28;20028;-63
2024/01/06 10:55:54;;;;;;;14.63;6.00;;;5.60;99.90;;;;;;5052008;28;20104;-62
2024/01/06 10:58:21;;;;;;;16.35;6.40;;;5.70;99.90;;;;;;5051984;28;20021;-62
2024/01/06 11:00:47;;;;;;;14.40;6.60;;;5.70;99.90;;;;;;5052130;28;20025;-63
2024/01/06 11:03:14;;;;;;;16.15;7.28;;;5.70;99.90;;;;;;5051822;28;20049;-62
2024/01/06 11:05:42;;;;;;;16.38;6.38;;;5.70;99.90;;;;;;5051973;28;20037;-62
2024/01/06 11:08:08;;;;;;;14.82;6.00;;;5.70;99.90;;;;;;5053028;28;20091;-62
2024/01/06 11:10:36;;;;;;;14.38;6.68;;;5.70;99.90;;;;;;5055943;28;20053;-62
2024/01/06 11:13:23;;;;;;;16.27;6.50;;;5.70;99.90;;;;;;5055899;28;20040;-62
2024/01/06 11:15:53;;;;;;;16.83;7.00;;;5.70;99.90;;;;;;5054772;28;20025;-63
2024/01/06 11:18:37;;;;;;;16.33;6.82;;;5.60;99.90;;;;;;5055853;28;20033;-63
2024/01/06 11:21:26;;;;;;;13.52;6.55;;;5.70;99.90;;;;;;5055677;28;20056;-63
2024/01/06 11:24:06;;;;;;;13.40;5.72;;;5.70;99.90;;;;;;5055744;28;20030;-61
2024/01/06 11:26:32;;;;;;;13.02;5.65;;;5.70;99.90;;;;;;5055737;28;20029;-62
2024/01/06 11:29:00;;;;;;;14.05;5.85;;;5.70;99.90;;;;;;5055569;28;20447;-63
2024/01/06 11:31:31;;;;;;;12.23;5.25;;;5.70;99.90;;;;;;5055329;28;20025;-62
2024/01/06 11:34:11;;;;;;;15.13;6.35;;;5.70;99.90;;;;;;5055636;28;20041;-63
2024/01/06 11:36:37;;;;;;;13.85;5.63;;;5.70;99.90;;;;;;5055417;28;20029;-63
2024/01/06 11:39:02;;;;;;;13.45;5.35;;;5.70;99.90;;;;;;5055289;28;20049;-65
2024/01/06 11:41:52;;;;;;;14.05;6.20;;;5.70;99.90;;;;;;5055385;28;20044;-63
2024/01/06 11:44:28;;;;;;;13.52;5.82;;;5.60;99.90;;;;;;5055458;28;20022;-64
2024/01/06 11:46:56;;;;;;;12.27;5.30;;;5.60;99.90;;;;;;5055342;28;20028;-65
2024/01/06 11:49:28;;;;;;;14.77;6.45;;;5.60;99.90;;;;;;5055332;28;20069;-63
2024/01/06 11:51:54;;;;;;;11.40;5.50;;;5.60;99.90;;;;;;5055207;28;20060;-62
2024/01/06 11:54:21;;;;;;;14.35;5.57;;;5.60;99.90;;;;;;5055170;28;20033;-63
2024/01/06 11:56:47;;;;;;;12.15;5.78;;;5.60;99.90;;;;;;5055202;28;20026;-62
2024/01/06 11:59:12;;;;;;;13.07;6.85;;;5.50;99.90;;;;;;5055213;28;20083;-63
2024/01/06 12:01:38;;;;;;;16.33;6.75;;;5.50;99.90;;;;;;5054953;28;20025;-62
2024/01/06 12:04:05;;;;;;;14.48;6.38;;;5.50;99.90;;;;;;5055061;28;20041;-62
2024/01/06 12:06:31;;;;;;;14.35;7.00;;;5.50;99.90;;;;;;5054698;28;20056;-63
2024/01/06 12:09:08;;;;;;;13.85;6.38;;;5.50;99.90;;;;;;5054897;28;20057;-64
2024/01/06 12:11:33;;;;;;;13.95;6.30;;;5.60;99.90;;;;;;5054770;28;20036;-63
2024/01/06 12:13:59;;;;;;;14.35;6.43;;;5.50;99.90;;;;;;5054825;28;20033;-64
2024/01/06 12:16:27;;;;;;;14.85;6.60;;;5.50;99.90;;;;;;5054770;28;20081;-63
2024/01/06 12:18:55;;;;;;;12.80;6.50;;;5.50;99.90;;;;;;5054482;28;20052;-65
2024/01/06 12:21:22;;;;;;;13.65;6.28;;;5.50;99.90;;;;;;5053764;28;20037;-64
2024/01/06 12:23:48;;;;;;;11.82;5.63;;;5.50;99.90;;;;;;5054620;28;20024;-63
2024/01/06 12:26:13;;;;;;;13.02;6.22;;;5.50;99.90;;;;;;5054625;28;20022;-63
2024/01/06 12:28:39;;;;;;;11.57;6.03;;;5.50;99.90;;;;;;5054588;28;20514;-63
2024/01/06 12:31:09;;;;;;;13.15;5.78;;;5.50;99.90;;;;;;5054599;28;20097;-63
2024/01/06 12:33:37;;;;;;;15.50;6.40;;;5.40;99.90;;;;;;5054393;28;20368;-64
2024/01/06 12:36:03;;;;;;;15.50;6.85;;;5.40;99.90;;;;;;5054428;28;20036;-64
2024/01/06 12:38:32;;;;;;;13.00;6.07;;;5.40;99.90;;;;;;5054262;28;20046;-63
2024/01/06 12:40:57;;;;;;;14.05;6.60;;;5.50;99.90;;;;;;5054325;28;20076;-65
2024/01/06 12:43:23;;;;;;;14.95;6.15;;;5.50;99.90;;;;;;5054268;28;20036;-64